createdAt,value
2023-02-24T00:02:20.079Z,24.63
2023-02-24T00:04:51.930Z,24.13
2023-02-24T00:07:20.330Z,23.07
2023-02-24T00:09:49.020Z,22.87
2023-02-24T00:12:20.997Z,22.50
2023-02-24T00:14:48.824Z,21.70
2023-02-24T00:17:16.721Z,22.00
2023-02-24T00:19:44.659Z,21.70
2023-02-24T00:22:12.756Z,22.10
2023-02-24T00:24:40.596Z,21.07
2023-02-24T00:27:11.437Z,21.47
2023-02-24T00:29:42.043Z,22.17
2023-02-24T00:32:12.839Z,20.77
2023-02-24T00:34:41.612Z,21.60
2023-02-24T00:37:09.794Z,21.57
2023-02-24T00:39:41.219Z,21.10
2023-02-24T00:42:09.540Z,21.37
2023-02-24T00:44:41.328Z,21.53
2023-02-24T00:47:10.656Z,22.07
2023-02-24T00:49:42.288Z,26.27
2023-02-24T00:52:13.638Z,28.23
2023-02-24T00:54:41.684Z,28.43
2023-02-24T00:57:09.740Z,29.47
2023-02-24T00:59:38.180Z,28.67
2023-02-24T01:02:08.001Z,29.20
2023-02-24T01:04:37.670Z,29.20
2023-02-24T01:07:10.832Z,31.70
2023-02-24T01:09:41.091Z,32.63
2023-02-24T01:12:26.660Z,33.03
2023-02-24T01:14:55.327Z,33.23
2023-02-24T01:17:25.464Z,32.37
2023-02-24T01:19:55.091Z,33.60
2023-02-24T01:22:23.803Z,34.10
2023-02-24T01:24:51.912Z,32.07
2023-02-24T01:27:19.841Z,31.90
2023-02-24T01:29:47.768Z,31.90
2023-02-24T01:32:18.909Z,30.50
2023-02-24T01:34:48.626Z,29.70
2023-02-24T01:37:16.965Z,30.70
2023-02-24T01:39:45.255Z,30.10
2023-02-24T01:42:16.466Z,31.53
2023-02-24T01:45:12.783Z,31.43
2023-02-24T01:47:40.973Z,30.30
2023-02-24T01:50:15.507Z,31.80
2023-02-24T01:52:45.453Z,31.27
2023-02-24T01:55:16.695Z,32.40
2023-02-24T01:57:46.118Z,32.93
2023-02-24T02:00:32.544Z,34.53
2023-02-24T02:03:02.156Z,32.20
2023-02-24T02:05:31.346Z,32.27
2023-02-24T02:07:59.398Z,32.23
2023-02-24T02:10:28.945Z,32.53
2023-02-24T02:12:56.975Z,32.63
2023-02-24T02:15:24.882Z,33.00
2023-02-24T02:17:57.917Z,34.40
2023-02-24T02:20:56.950Z,33.43
2023-02-24T02:23:50.645Z,33.13
2023-02-24T02:26:35.681Z,34.27
2023-02-24T02:32:31.486Z,36.50
2023-02-24T02:35:08.134Z,38.47
2023-02-24T02:37:40.443Z,38.47
2023-02-24T02:40:18.563Z,43.50
2023-02-24T02:42:49.399Z,42.27
2023-02-24T02:45:19.935Z,43.03
2023-02-24T02:47:53.988Z,42.70
2023-02-24T02:50:27.070Z,44.70
2023-02-24T02:52:57.471Z,45.23
2023-02-24T02:55:28.394Z,43.30
2023-02-24T02:57:58.417Z,46.07
2023-02-24T03:00:29.201Z,44.80
2023-02-24T03:02:59.182Z,47.80
2023-02-24T03:05:31.851Z,45.47
2023-02-24T03:08:00.553Z,47.07
2023-02-24T03:10:29.800Z,44.90
2023-02-24T03:13:00.123Z,47.53
2023-02-24T03:15:30.361Z,45.00
2023-02-24T03:18:02.861Z,49.00
2023-02-24T03:20:41.173Z,45.83
2023-02-24T03:23:16.776Z,48.60
2023-02-24T03:25:49.397Z,46.43
2023-02-24T03:28:19.985Z,45.47
2023-02-24T03:30:51.558Z,45.80
2023-02-24T03:33:23.966Z,42.87
2023-02-24T03:35:53.247Z,43.70
2023-02-24T03:38:24.466Z,44.53
2023-02-24T03:40:53.375Z,43.57
2023-02-24T03:43:25.965Z,43.70
2023-02-24T03:45:54.341Z,43.60
2023-02-24T03:48:24.599Z,43.33
2023-02-24T03:50:54.107Z,43.83
2023-02-24T03:53:33.300Z,43.20
2023-02-24T03:56:10.844Z,42.30
2023-02-24T03:58:48.769Z,43.73
2023-02-24T04:01:22.501Z,43.30
2023-02-24T04:03:57.586Z,43.03
2023-02-24T04:06:34.264Z,42.70
2023-02-24T04:09:07.838Z,43.97
2023-02-24T04:11:40.646Z,44.33
2023-02-24T04:14:12.173Z,41.17
2023-02-24T04:16:45.226Z,43.67
2023-02-24T04:19:17.002Z,43.77
2023-02-24T04:21:48.678Z,43.07
2023-02-24T04:24:18.778Z,43.30
2023-02-24T04:26:47.948Z,43.50
2023-02-24T04:29:23.116Z,42.37
2023-02-24T04:31:54.509Z,42.70
2023-02-24T04:34:22.520Z,42.10
2023-02-24T04:36:51.654Z,43.00
2023-02-24T04:39:20.606Z,42.57
2023-02-24T04:41:50.350Z,42.13
2023-02-24T04:44:18.739Z,41.27
2023-02-24T04:46:46.897Z,41.43
2023-02-24T04:49:14.792Z,42.80
2023-02-24T04:51:43.362Z,40.53
2023-02-24T04:54:17.190Z,43.83
2023-02-24T04:56:45.112Z,44.37
2023-02-24T04:59:13.193Z,43.03
2023-02-24T05:01:42.500Z,42.77
2023-02-24T05:04:10.743Z,42.77
2023-02-24T05:06:40.936Z,42.17
2023-02-24T05:09:14.207Z,43.10
2023-02-24T05:11:44.920Z,42.60
2023-02-24T05:14:14.907Z,43.80
2023-02-24T05:16:44.110Z,43.50
2023-02-24T05:19:29.680Z,40.90
2023-02-24T05:21:59.372Z,41.67
2023-02-24T05:24:29.150Z,39.73
2023-02-24T05:26:59.383Z,41.37
2023-02-24T05:32:22.161Z,42.03
2023-02-24T05:34:50.244Z,43.20
2023-02-24T05:37:18.518Z,42.20
2023-02-24T05:39:46.312Z,41.83
2023-02-24T05:42:15.536Z,44.00
2023-02-24T05:44:43.262Z,43.40
2023-02-24T05:47:11.424Z,43.43
2023-02-24T05:49:39.285Z,40.87
2023-02-24T05:52:09.207Z,39.27
2023-02-24T05:54:39.052Z,41.77
2023-02-24T05:57:11.673Z,40.83
2023-02-24T05:59:41.704Z,39.67
2023-02-24T06:02:12.525Z,41.97
2023-02-24T06:04:51.001Z,40.23
2023-02-24T06:07:22.740Z,40.63
2023-02-24T06:09:53.855Z,40.33
2023-02-24T06:12:23.270Z,40.53
2023-02-24T06:14:53.093Z,38.57
2023-02-24T06:17:21.855Z,40.40
2023-02-24T06:19:52.111Z,39.73
2023-02-24T06:22:22.784Z,41.30
2023-02-24T06:24:51.077Z,41.40
2023-02-24T06:27:21.698Z,41.70
2023-02-24T06:32:36.282Z,38.57
2023-02-24T06:35:04.863Z,39.67
2023-02-24T06:37:32.742Z,40.50
2023-02-24T06:40:00.562Z,40.40
2023-02-24T06:42:28.428Z,40.47
2023-02-24T06:44:56.245Z,39.80
2023-02-24T06:47:24.138Z,39.80
2023-02-24T06:49:53.672Z,40.50
2023-02-24T06:52:21.468Z,38.83
2023-02-24T06:54:52.321Z,41.33
2023-02-24T06:57:20.782Z,42.47
2023-02-24T06:59:49.047Z,40.30
2023-02-24T07:02:17.717Z,40.67
2023-02-24T07:04:45.696Z,42.97
2023-02-24T07:07:17.271Z,41.87
2023-02-24T07:09:45.514Z,41.17
2023-02-24T07:12:20.879Z,40.90
2023-02-24T07:14:50.305Z,40.00
2023-02-24T07:17:18.903Z,40.37
2023-02-24T07:19:46.717Z,41.40
2023-02-24T07:22:16.971Z,39.70
2023-02-24T07:24:46.497Z,41.83
2023-02-24T07:27:22.655Z,41.03
2023-02-24T07:32:32.805Z,40.43
2023-02-24T07:35:00.690Z,40.57
2023-02-24T07:37:31.657Z,40.00
2023-02-24T07:39:59.660Z,38.70
2023-02-24T07:42:30.611Z,39.10
2023-02-24T07:44:58.455Z,38.60
2023-02-24T07:47:26.613Z,40.27
2023-02-24T07:49:55.563Z,37.87
2023-02-24T07:52:25.022Z,40.03
2023-02-24T07:54:55.186Z,38.70
2023-02-24T07:57:25.266Z,38.30
2023-02-24T07:59:54.175Z,38.33
2023-02-24T08:02:23.796Z,38.37
2023-02-24T08:04:51.831Z,40.00
2023-02-24T08:07:24.755Z,38.97
2023-02-24T08:10:24.273Z,38.70
2023-02-24T08:12:55.586Z,38.37
2023-02-24T08:15:33.999Z,39.37
2023-02-24T08:18:02.483Z,37.93
2023-02-24T08:20:36.287Z,37.60
2023-02-24T08:23:06.411Z,38.27
2023-02-24T08:25:37.093Z,39.00
2023-02-24T08:28:09.199Z,39.50
2023-02-24T08:30:40.509Z,38.20
2023-02-24T08:33:10.653Z,37.27
2023-02-24T08:35:45.108Z,39.30
2023-02-24T08:38:15.590Z,38.50
2023-02-24T08:40:55.079Z,38.67
2023-02-24T08:43:33.045Z,38.40
2023-02-24T08:46:03.850Z,40.50
2023-02-24T08:48:37.345Z,37.83
2023-02-24T08:51:10.857Z,40.80
2023-02-24T08:53:40.860Z,40.07
2023-02-24T08:56:12.365Z,40.70
2023-02-24T08:58:47.301Z,40.17
2023-02-24T09:01:24.500Z,41.43
2023-02-24T09:03:54.722Z,41.20
2023-02-24T09:06:26.362Z,38.73
2023-02-24T09:09:25.132Z,40.40
2023-02-24T09:11:57.170Z,39.73
2023-02-24T09:14:28.442Z,38.83
2023-02-24T09:17:05.398Z,39.63
2023-02-24T09:20:07.475Z,40.17
2023-02-24T09:22:57.329Z,40.07
2023-02-24T09:25:26.069Z,40.87
2023-02-24T09:27:57.157Z,41.07
2023-02-24T09:30:37.110Z,42.90
2023-02-24T09:33:20.981Z,42.30
2023-02-24T09:35:51.504Z,41.90
2023-02-24T09:38:25.071Z,39.90
2023-02-24T09:40:52.853Z,40.80
2023-02-24T09:43:24.576Z,41.50
2023-02-24T09:45:58.548Z,42.43
2023-02-24T09:48:43.592Z,41.87
2023-02-24T09:51:21.823Z,39.77
2023-02-24T09:53:53.672Z,41.10
2023-02-24T09:56:32.642Z,42.13
2023-02-24T09:59:12.606Z,41.53
2023-02-24T10:01:53.104Z,42.73
2023-02-24T10:04:33.848Z,41.07
2023-02-24T10:07:06.356Z,40.10
2023-02-24T10:09:36.911Z,41.37
2023-02-24T10:12:11.688Z,42.67
2023-02-24T10:14:51.222Z,44.53
2023-02-24T10:17:23.942Z,43.87
2023-02-24T10:20:00.058Z,42.17
2023-02-24T10:22:40.412Z,39.87
2023-02-24T10:25:36.273Z,42.53
2023-02-24T10:28:12.165Z,41.90
2023-02-24T10:30:47.628Z,41.20
2023-02-24T10:33:25.606Z,41.93
2023-02-24T10:36:09.181Z,41.77
2023-02-24T10:38:38.164Z,41.37
2023-02-24T10:41:07.215Z,43.17
2023-02-24T10:43:45.484Z,41.77
2023-02-24T10:46:40.198Z,41.83
2023-02-24T10:49:16.381Z,42.20
2023-02-24T10:51:49.355Z,43.20
2023-02-24T10:54:34.170Z,40.17
2023-02-24T10:57:18.520Z,42.33
2023-02-24T11:00:06.248Z,41.70
2023-02-24T11:02:56.612Z,42.90
2023-02-24T11:05:47.018Z,43.03
2023-02-24T11:08:36.418Z,42.63
2023-02-24T11:11:20.492Z,40.63
2023-02-24T11:14:09.432Z,41.77
2023-02-24T11:17:02.990Z,40.40
2023-02-24T11:19:33.426Z,41.47
2023-02-24T11:22:02.026Z,41.90
2023-02-24T11:24:30.424Z,41.70
2023-02-24T11:26:58.790Z,40.47
2023-02-24T11:29:44.002Z,42.10
2023-02-24T11:32:22.171Z,41.30
2023-02-24T11:34:55.457Z,42.93
2023-02-24T11:37:34.643Z,42.30
2023-02-24T11:40:05.305Z,42.13
2023-02-24T11:42:38.174Z,41.67
2023-02-24T11:45:12.215Z,44.90
2023-02-24T11:47:43.515Z,43.53
2023-02-24T11:50:28.310Z,42.90
2023-02-24T11:52:57.427Z,41.37
2023-02-24T11:55:34.399Z,43.77
2023-02-24T11:58:04.969Z,42.97
2023-02-24T12:00:38.345Z,41.87
2023-02-24T12:03:13.573Z,42.70
2023-02-24T12:05:46.057Z,41.97
2023-02-24T12:08:23.967Z,43.70
2023-02-24T12:10:55.269Z,42.60
2023-02-24T12:13:31.201Z,44.80
2023-02-24T12:16:04.169Z,43.80
2023-02-24T12:18:35.103Z,43.43
2023-02-24T12:21:08.239Z,43.93
2023-02-24T12:23:37.552Z,44.93
2023-02-24T12:26:15.787Z,44.17
2023-02-24T12:28:59.537Z,42.93
2023-02-24T12:31:37.553Z,43.17
2023-02-24T12:34:09.816Z,45.17
2023-02-24T12:37:05.522Z,42.57
2023-02-24T12:39:40.610Z,44.40
2023-02-24T12:42:16.548Z,41.20
2023-02-24T12:44:51.931Z,42.57
2023-02-24T12:47:26.762Z,43.90
2023-02-24T12:50:16.690Z,43.40
2023-02-24T12:52:54.226Z,44.77
2023-02-24T12:55:25.861Z,43.93
2023-02-24T12:57:59.094Z,46.53
2023-02-24T13:00:33.507Z,46.53
2023-02-24T13:03:09.001Z,46.70
2023-02-24T13:05:41.053Z,44.30
2023-02-24T13:08:20.138Z,44.87
2023-02-24T13:10:50.839Z,45.00
2023-02-24T13:13:25.119Z,44.50
2023-02-24T13:15:54.364Z,46.70
2023-02-24T13:18:27.716Z,46.67
2023-02-24T13:21:10.634Z,45.90
2023-02-24T13:23:42.552Z,43.80
2023-02-24T13:26:10.966Z,44.97
2023-02-24T13:28:38.867Z,46.00
2023-02-24T13:31:09.136Z,45.53
2023-02-24T13:33:39.090Z,46.77
2023-02-24T13:36:20.499Z,46.97
2023-02-24T13:38:50.919Z,48.93
2023-02-24T13:41:40.665Z,47.70
2023-02-24T13:44:28.412Z,47.37
2023-02-24T13:47:16.708Z,49.60
2023-02-24T13:49:53.254Z,46.80
2023-02-24T13:52:32.648Z,47.23
2023-02-24T13:55:23.476Z,46.50
2023-02-24T13:58:04.551Z,47.20
2023-02-24T14:00:41.146Z,46.07
2023-02-24T14:03:13.472Z,46.73
2023-02-24T14:05:43.194Z,46.43
2023-02-24T14:08:19.400Z,48.60
2023-02-24T14:10:56.763Z,46.20
2023-02-24T14:13:28.021Z,48.13
2023-02-24T14:15:56.858Z,47.30
2023-02-24T14:18:26.463Z,46.53
2023-02-24T14:20:56.384Z,47.27
2023-02-24T14:23:26.308Z,47.30
2023-02-24T14:25:57.702Z,48.00
2023-02-24T14:28:28.601Z,47.90
2023-02-24T14:30:58.862Z,48.07
2023-02-24T14:33:33.113Z,48.97
2023-02-24T14:36:01.903Z,47.47
2023-02-24T14:38:32.921Z,46.57
2023-02-24T14:41:02.447Z,44.70
2023-02-24T14:43:30.887Z,41.77
2023-02-24T14:45:59.074Z,38.30
2023-02-24T14:48:27.997Z,38.40
2023-02-24T14:50:57.239Z,37.07
2023-02-24T14:53:27.127Z,37.13
2023-02-24T14:55:57.020Z,35.93
2023-02-24T14:58:29.269Z,37.53
2023-02-24T15:01:00.190Z,35.90
2023-02-24T15:03:30.388Z,34.47
2023-02-24T15:06:00.491Z,30.73
2023-02-24T15:08:34.602Z,31.30
2023-02-24T15:11:09.116Z,30.90
2023-02-24T15:13:40.572Z,29.60
2023-02-24T15:16:13.378Z,29.73
2023-02-24T15:18:41.795Z,28.03
2023-02-24T15:21:20.661Z,25.20
2023-02-24T15:23:48.814Z,21.83
2023-02-24T15:26:27.954Z,22.93
2023-02-24T15:29:02.208Z,20.10
2023-02-24T15:31:30.976Z,19.40
2023-02-24T15:34:00.908Z,17.93
2023-02-24T15:36:32.905Z,17.63
2023-02-24T15:39:03.030Z,18.07
2023-02-24T15:41:40.861Z,17.77
2023-02-24T15:44:26.000Z,16.03
2023-02-24T15:46:53.979Z,17.90
2023-02-24T15:49:21.863Z,17.00
2023-02-24T15:51:52.893Z,17.60
2023-02-24T15:54:23.423Z,18.40
2023-02-24T15:56:51.287Z,17.47
2023-02-24T16:03:33.892Z,16.77
2023-02-24T16:09:42.645Z,15.60
2023-02-24T16:12:13.959Z,16.80
2023-02-24T16:14:42.333Z,15.77
2023-02-24T16:18:05.627Z,17.83
2023-02-24T16:20:39.669Z,16.77
2023-02-24T16:23:07.510Z,15.97
2023-02-24T16:25:38.982Z,16.53
2023-02-24T16:28:06.936Z,18.20
2023-02-24T16:30:37.672Z,17.87
2023-02-24T16:33:05.680Z,17.67
2023-02-24T16:35:34.992Z,18.37
2023-02-24T16:38:02.764Z,17.97
2023-02-24T16:40:33.718Z,17.67
2023-02-24T16:43:01.565Z,18.80
2023-02-24T16:45:30.548Z,18.33
2023-02-24T16:48:02.405Z,19.10
2023-02-24T16:50:35.592Z,20.13
2023-02-24T16:53:03.444Z,19.97
2023-02-24T16:55:31.349Z,19.83
2023-02-24T16:57:59.097Z,18.47
2023-02-24T17:00:27.227Z,18.90
2023-02-24T17:02:55.284Z,20.50
2023-02-24T17:05:25.264Z,23.17
2023-02-24T17:07:56.123Z,21.73
2023-02-24T17:10:25.072Z,20.23
2023-02-24T17:12:52.956Z,19.13
2023-02-24T17:15:22.484Z,18.80
2023-02-24T17:17:50.460Z,18.63
2023-02-24T17:20:20.405Z,17.00
2023-02-24T17:22:48.226Z,16.90
2023-02-24T17:25:18.969Z,15.63
2023-02-24T17:27:46.785Z,15.23
2023-02-24T17:30:16.692Z,14.87
2023-02-24T17:32:44.712Z,15.13
2023-02-24T17:35:12.501Z,15.27
2023-02-24T17:37:40.337Z,14.90
2023-02-24T17:40:09.028Z,15.03
2023-02-24T17:42:38.214Z,15.27
2023-02-24T17:45:07.119Z,13.43
2023-02-24T17:47:35.346Z,14.47
2023-02-24T17:50:03.329Z,15.80
2023-02-24T17:52:32.285Z,16.27
2023-02-24T17:55:00.160Z,16.07
2023-02-24T17:57:29.512Z,15.97
2023-02-24T17:59:58.668Z,18.50
2023-02-24T18:02:26.616Z,18.53
2023-02-24T18:04:54.469Z,19.53
2023-02-24T18:07:22.427Z,22.97
2023-02-24T18:09:50.219Z,24.60
2023-02-24T18:12:18.714Z,28.80
2023-02-24T18:14:48.402Z,27.87
2023-02-24T18:17:19.064Z,30.00
2023-02-24T18:19:46.990Z,32.00
2023-02-24T18:22:14.780Z,33.07
2023-02-24T18:24:42.556Z,34.97
2023-02-24T18:27:10.372Z,35.80
2023-02-24T18:29:38.215Z,36.30
2023-02-24T18:32:06.177Z,38.30
2023-02-24T18:34:35.453Z,39.63
2023-02-24T18:37:03.273Z,37.87
2023-02-24T18:39:31.081Z,38.73
2023-02-24T18:41:59.645Z,39.63
2023-02-24T18:44:27.536Z,37.93
2023-02-24T18:46:55.317Z,38.23
2023-02-24T18:49:23.187Z,37.53
2023-02-24T18:51:52.388Z,36.60
2023-02-24T18:54:20.661Z,36.90
2023-02-24T18:56:48.595Z,35.97
2023-02-24T18:59:16.484Z,36.70
2023-02-24T19:01:44.259Z,37.80
2023-02-24T19:04:12.782Z,36.00
2023-02-24T19:06:41.618Z,35.83
2023-02-24T19:09:12.384Z,36.23
2023-02-24T19:11:40.675Z,33.40
2023-02-24T19:14:10.996Z,35.00
2023-02-24T19:16:39.611Z,33.00
2023-02-24T19:19:07.429Z,33.77
2023-02-24T19:21:35.778Z,32.70
2023-02-24T19:24:08.236Z,33.33
2023-02-24T19:26:37.690Z,31.33
2023-02-24T19:29:06.076Z,32.00
2023-02-24T19:31:34.486Z,32.20
2023-02-24T19:34:04.532Z,30.93
2023-02-24T19:36:34.410Z,30.43
2023-02-24T19:39:02.397Z,30.83
2023-02-24T19:41:30.358Z,30.77
2023-02-24T19:43:59.483Z,30.80
2023-02-24T19:46:27.620Z,31.50
2023-02-24T19:48:57.579Z,31.57
2023-02-24T19:51:25.911Z,30.30
2023-02-24T19:53:53.739Z,30.07
2023-02-24T19:56:23.641Z,29.30
2023-02-24T19:58:53.552Z,30.07
2023-02-24T20:01:23.719Z,27.37
2023-02-24T20:03:51.583Z,30.43
2023-02-24T20:06:20.333Z,28.43
2023-02-24T20:08:48.487Z,28.10
2023-02-24T20:11:16.322Z,29.27
2023-02-24T20:13:44.243Z,31.63
2023-02-24T20:16:13.931Z,29.77
2023-02-24T20:18:43.592Z,30.13
2023-02-24T20:21:11.992Z,32.20
2023-02-24T20:23:40.129Z,33.60
2023-02-24T20:26:08.440Z,30.90
2023-02-24T20:28:36.246Z,33.53
2023-02-24T20:33:57.905Z,31.50
2023-02-24T20:36:26.956Z,30.67
2023-02-24T20:38:57.404Z,30.97
2023-02-24T20:41:27.602Z,30.87
2023-02-24T20:43:55.944Z,30.57
2023-02-24T20:46:26.284Z,29.40
2023-02-24T20:48:58.135Z,30.10
2023-02-24T20:51:26.086Z,29.30
2023-02-24T20:53:58.151Z,27.97
2023-02-24T20:56:26.961Z,28.37
2023-02-24T20:58:59.974Z,25.87
2023-02-24T21:01:28.626Z,26.33
2023-02-24T21:03:58.021Z,23.80
2023-02-24T21:06:26.891Z,24.23
2023-02-24T21:08:55.080Z,23.10
2023-02-24T21:11:23.069Z,22.67
2023-02-24T21:13:52.312Z,22.20
2023-02-24T21:16:21.589Z,21.33
2023-02-24T21:18:51.478Z,22.30
2023-02-24T21:21:21.483Z,23.37
2023-02-24T21:23:50.334Z,22.53
2023-02-24T21:26:18.783Z,22.53
2023-02-24T21:28:46.789Z,22.37
2023-02-24T21:33:55.856Z,20.47
2023-02-24T21:36:27.901Z,22.07
2023-02-24T21:38:56.519Z,20.77
2023-02-24T21:41:24.766Z,20.87
2023-02-24T21:43:54.827Z,20.20
2023-02-24T21:46:24.706Z,20.57
2023-02-24T21:48:55.083Z,19.20
2023-02-24T21:51:25.747Z,20.83
2023-02-24T21:53:55.311Z,20.67
2023-02-24T21:56:24.591Z,19.37
2023-02-24T21:58:54.668Z,20.40
2023-02-24T22:01:25.271Z,19.30
2023-02-24T22:03:54.306Z,19.87
2023-02-24T22:06:24.421Z,18.60
2023-02-24T22:08:52.389Z,22.23
2023-02-24T22:11:20.277Z,22.80
2023-02-24T22:13:48.491Z,24.50
2023-02-24T22:16:18.313Z,26.10
2023-02-24T22:18:46.332Z,27.00
2023-02-24T22:21:17.320Z,26.87
2023-02-24T22:23:47.615Z,27.43
2023-02-24T22:26:16.723Z,26.33
2023-02-24T22:28:46.726Z,26.87
2023-02-24T22:31:23.931Z,28.00
2023-02-24T22:33:51.824Z,27.90
2023-02-24T22:36:21.623Z,27.60
2023-02-24T22:38:51.702Z,27.43
2023-02-24T22:41:21.256Z,25.30
2023-02-24T22:43:49.421Z,26.50
2023-02-24T22:46:19.189Z,27.20
2023-02-24T22:48:46.970Z,28.17
2023-02-24T22:51:15.625Z,27.87
2023-02-24T22:53:46.562Z,28.80
2023-02-24T22:56:17.725Z,25.03
2023-02-24T22:58:46.257Z,26.70
2023-02-24T23:01:16.992Z,25.60
2023-02-24T23:03:46.109Z,25.43
2023-02-24T23:06:15.714Z,24.03
2023-02-24T23:08:44.752Z,25.00
2023-02-24T23:11:14.205Z,25.03
2023-02-24T23:13:44.780Z,27.57
2023-02-24T23:16:15.062Z,27.37
2023-02-24T23:18:48.451Z,29.37
2023-02-24T23:21:16.981Z,27.60
2023-02-24T23:23:45.123Z,28.80
2023-02-24T23:26:13.074Z,28.77
2023-02-24T23:28:40.954Z,29.27
2023-02-24T23:31:10.184Z,29.20
2023-02-24T23:33:40.891Z,30.43
2023-02-24T23:36:09.691Z,29.23
2023-02-24T23:38:37.535Z,29.33
2023-02-24T23:41:09.101Z,29.33
2023-02-24T23:43:37.104Z,30.37
2023-02-24T23:46:05.678Z,31.90
2023-02-24T23:48:35.167Z,32.27
2023-02-24T23:51:03.651Z,32.63
2023-02-24T23:53:31.913Z,33.90
2023-02-24T23:55:59.647Z,33.43
2023-02-24T23:58:27.420Z,33.37
